Time;durP1;ratioP1;P1;durP2;ratioP2;P2;SDS_P1;SDS_P2;PMS_P1;PMS_P2;Temp;Humidity;BMP_temperature;BMP_pressure;BME280_temperature;BME280_humidity;BME280_pressure;Samples;Min_cycle;Max_cycle;Signal;HPM_P1;HPM_P2
2022/06/06 00:00:09;;;;;;;7.00;4.95;;;21.50;63.90;;;;;;5074339;28;20044;-63
2022/06/06 00:02:36;;;;;;;5.03;4.50;;;21.50;64.00;;;;;;5074475;28;20542;-63
2022/06/06 00:05:01;;;;;;;4.90;3.88;;;21.50;64.00;;;;;;5073082;28;20095;-63
2022/06/06 00:07:27;;;;;;;5.15;4.50;;;21.50;64.00;;;;;;5074269;28;20448;-63
2022/06/06 00:09:53;;;;;;;5.10;4.30;;;21.50;64.00;;;;;;5072623;28;20089;-63
2022/06/06 00:12:20;;;;;;;5.22;4.55;;;21.50;64.00;;;;;;5074183;28;20041;-63
2022/06/06 00:14:45;;;;;;;4.93;4.43;;;21.50;64.10;;;;;;5073604;28;20044;-63
2022/06/06 00:17:12;;;;;;;4.85;4.32;;;21.50;64.10;;;;;;5073366;28;20048;-63
2022/06/06 00:19:38;;;;;;;5.60;4.97;;;21.50;64.20;;;;;;5074093;28;20048;-63
2022/06/06 00:22:04;;;;;;;4.78;4.28;;;21.50;64.80;;;;;;5073357;28;20522;-63
2022/06/06 00:24:30;;;;;;;4.75;4.25;;;21.50;64.20;;;;;;5073316;28;20048;-63
2022/06/06 00:26:56;;;;;;;4.90;3.75;;;21.50;64.20;;;;;;5073702;28;20127;-63
2022/06/06 00:29:22;;;;;;;4.88;4.38;;;21.50;64.30;;;;;;5073963;28;20044;-63
2022/06/06 00:34:51;;;;;;;4.47;3.70;;;21.40;64.20;;;;;;5073792;28;20044;-63
2022/06/06 00:37:23;;;;;;;5.03;4.20;;;21.40;64.20;;;;;;5073765;28;20044;-63
2022/06/06 00:39:49;;;;;;;4.45;3.97;;;21.40;64.20;;;;;;5072384;28;20492;-63
2022/06/06 00:42:28;;;;;;;4.50;3.92;;;21.40;64.30;;;;;;5073712;28;20051;-63
2022/06/06 00:45:15;;;;;;;5.05;3.85;;;21.40;64.30;;;;;;5072497;28;20048;-63
2022/06/06 00:47:41;;;;;;;5.53;3.70;;;21.50;64.40;;;;;;5072014;28;20052;-63
2022/06/06 00:50:16;;;;;;;5.35;4.10;;;21.40;64.30;;;;;;5073371;28;20040;-63
2022/06/06 00:52:42;;;;;;;4.32;3.92;;;21.40;64.30;;;;;;5071456;28;20488;-63
2022/06/06 00:55:23;;;;;;;3.67;3.35;;;21.40;64.30;;;;;;5073352;28;20139;-63
2022/06/06 00:57:57;;;;;;;4.40;4.00;;;21.40;64.30;;;;;;5071584;28;20357;-63
2022/06/06 01:00:22;;;;;;;4.40;3.47;;;21.40;64.40;;;;;;5067828;28;20044;-63
2022/06/06 01:02:51;;;;;;;3.80;3.20;;;21.40;64.40;;;;;;5051701;28;20102;-63
2022/06/06 01:05:17;;;;;;;4.00;3.60;;;21.40;64.40;;;;;;5052339;28;20052;-63
2022/06/06 01:07:42;;;;;;;3.75;3.10;;;21.40;64.40;;;;;;5068423;28;20407;-64
2022/06/06 01:10:08;;;;;;;4.10;3.70;;;21.40;64.40;;;;;;5073242;28;20036;-63
2022/06/06 01:12:34;;;;;;;4.15;3.10;;;21.40;64.40;;;;;;5073123;28;20047;-63
2022/06/06 01:15:05;;;;;;;4.63;3.50;;;21.40;64.40;;;;;;5071802;28;20048;-63
2022/06/06 01:17:58;;;;;;;3.97;3.33;;;21.40;64.40;;;;;;5072628;28;20040;-63
2022/06/06 01:20:33;;;;;;;4.30;3.47;;;21.40;64.40;;;;;;5071876;28;20044;-63
2022/06/06 01:23:23;;;;;;;5.65;3.60;;;21.30;64.40;;;;;;5072220;28;20049;-63
2022/06/06 01:26:16;;;;;;;3.70;3.25;;;21.40;64.60;;;;;;5072739;28;20049;-63
2022/06/06 01:28:59;;;;;;;3.42;2.85;;;21.40;64.50;;;;;;5071656;28;20562;-63
2022/06/06 01:31:31;;;;;;;4.00;3.30;;;21.40;64.50;;;;;;5071754;28;20049;-63
2022/06/06 01:33:58;;;;;;;5.03;3.15;;;21.30;64.40;;;;;;5071697;28;20048;-63
2022/06/06 01:36:26;;;;;;;4.35;3.08;;;21.30;64.50;;;;;;5071951;28;20127;-64
2022/06/06 01:38:52;;;;;;;3.78;2.95;;;21.30;64.40;;;;;;5072091;28;20513;-63
2022/06/06 01:41:42;;;;;;;4.30;3.40;;;21.30;64.50;;;;;;5071812;28;20472;-63
2022/06/06 01:44:47;;;;;;;3.83;3.30;;;21.30;64.50;;;;;;5071275;28;20059;-63
2022/06/06 01:47:16;;;;;;;3.70;3.17;;;21.30;64.50;;;;;;5088406;28;20543;-64
2022/06/06 01:49:42;;;;;;;3.83;2.97;;;21.30;64.60;;;;;;5070656;28;20048;-64
2022/06/06 01:52:13;;;;;;;4.68;3.42;;;21.30;64.50;;;;;;5071421;28;20040;-63
2022/06/06 01:54:40;;;;;;;4.18;3.35;;;21.30;64.60;;;;;;5072497;28;20067;-63
2022/06/06 01:57:06;;;;;;;4.38;3.47;;;21.30;64.50;;;;;;5072155;28;20048;-64
2022/06/06 01:59:32;;;;;;;4.18;3.40;;;21.30;64.50;;;;;;5072232;28;20036;-63
2022/06/06 02:01:58;;;;;;;3.78;3.20;;;21.30;64.60;;;;;;5072104;28;20549;-63
2022/06/06 02:04:23;;;;;;;3.10;2.80;;;21.30;64.60;;;;;;5072040;28;20045;-64
2022/06/06 02:06:49;;;;;;;4.75;3.38;;;21.30;64.60;;;;;;5075460;28;20121;-64
2022/06/06 02:09:14;;;;;;;4.18;3.40;;;21.30;64.60;;;;;;5075697;28;20143;-63
2022/06/06 02:11:40;;;;;;;4.00;3.00;;;21.30;64.60;;;;;;5076173;28;20036;-64
2022/06/06 02:14:07;;;;;;;4.40;3.00;;;21.30;64.60;;;;;;5076423;28;20399;-64
2022/06/06 02:16:33;;;;;;;3.70;3.10;;;21.30;64.60;;;;;;5075783;28;20121;-64
2022/06/06 02:18:59;;;;;;;4.80;3.50;;;21.30;64.50;;;;;;5075870;28;20547;-64
2022/06/06 02:21:24;;;;;;;4.78;3.38;;;21.30;64.50;;;;;;5076223;28;20132;-64
2022/06/06 02:23:50;;;;;;;5.10;3.75;;;21.30;64.60;;;;;;5074939;28;20488;-64
2022/06/06 02:26:16;;;;;;;5.25;3.33;;;21.30;64.60;;;;;;5076411;28;20047;-63
2022/06/06 02:28:41;;;;;;;4.15;3.40;;;21.30;64.50;;;;;;5075647;28;20048;-64
2022/06/06 02:31:07;;;;;;;4.05;3.28;;;21.30;64.50;;;;;;5075477;28;20044;-64
2022/06/06 02:33:33;;;;;;;4.50;3.38;;;21.30;64.50;;;;;;5076156;28;20072;-63
2022/06/06 02:36:00;;;;;;;5.13;3.67;;;21.20;64.40;;;;;;5075660;28;20119;-64
2022/06/06 02:38:26;;;;;;;4.20;3.45;;;21.20;64.50;;;;;;5075281;28;20044;-63
2022/06/06 02:40:52;;;;;;;4.43;3.15;;;21.20;64.50;;;;;;5075586;28;20052;-64
2022/06/06 02:43:18;;;;;;;5.07;3.72;;;21.30;64.50;;;;;;5075701;28;20049;-63
2022/06/06 02:45:46;;;;;;;4.90;3.67;;;21.20;64.50;;;;;;5074827;28;20133;-63
2022/06/06 02:48:12;;;;;;;5.60;3.50;;;21.20;64.50;;;;;;5075256;28;20041;-63
2022/06/06 02:50:38;;;;;;;5.03;3.42;;;21.20;64.50;;;;;;5075849;28;20381;-63
2022/06/06 02:53:05;;;;;;;5.30;4.05;;;21.20;64.50;;;;;;5074461;28;20048;-63
2022/06/06 02:55:31;;;;;;;5.28;3.42;;;21.20;64.50;;;;;;5075541;28;20044;-63
2022/06/06 02:57:57;;;;;;;5.90;3.72;;;21.20;64.50;;;;;;5074870;28;20044;-63
2022/06/06 03:00:28;;;;;;;5.88;3.40;;;21.20;64.40;;;;;;5073798;28;20052;-63
2022/06/06 03:02:53;;;;;;;4.47;3.33;;;21.20;64.40;;;;;;5073705;28;20059;-63
2022/06/06 03:05:19;;;;;;;4.88;3.20;;;21.20;64.40;;;;;;5075522;28;20119;-63
2022/06/06 03:07:51;;;;;;;7.03;3.58;;;21.20;64.40;;;;;;5074112;28;20048;-63
2022/06/06 03:10:55;;;;;;;5.03;3.50;;;21.20;64.40;;;;;;5073982;28;20438;-63
2022/06/06 03:13:43;;;;;;;7.07;3.67;;;21.20;64.40;;;;;;5069180;28;20052;-63
2022/06/06 03:22:48;;;;;;;5.97;3.97;;;21.20;64.40;;;;;;5074945;28;20087;-63
2022/06/06 03:25:31;;;;;;;5.80;4.03;;;21.20;64.30;;;;;;5073397;28;20049;-63
2022/06/06 03:28:12;;;;;;;5.78;4.05;;;21.20;64.30;;;;;;5073073;28;20052;-63
2022/06/06 03:31:06;;;;;;;6.13;3.80;;;21.10;64.20;;;;;;5075017;28;20131;-63
2022/06/06 03:33:42;;;;;;;5.20;3.60;;;21.20;64.20;;;;;;5075054;28;20058;-63
2022/06/06 03:36:15;;;;;;;5.97;3.90;;;21.20;64.30;;;;;;5075024;28;20036;-63
2022/06/06 03:39:12;;;;;;;5.80;3.67;;;21.20;64.30;;;;;;5073299;28;20126;-63
2022/06/06 03:41:46;;;;;;;5.78;3.72;;;21.10;64.20;;;;;;5075876;28;20052;-63
2022/06/06 03:44:19;;;;;;;5.13;3.47;;;21.10;64.20;;;;;;5074912;28;20045;-63
2022/06/06 03:46:52;;;;;;;6.47;3.92;;;21.10;64.20;;;;;;5072954;28;20450;-63
2022/06/06 03:49:26;;;;;;;5.25;3.63;;;21.10;64.20;;;;;;5072846;28;20055;-63
2022/06/06 03:52:21;;;;;;;5.65;3.83;;;21.10;64.20;;;;;;5073553;28;20076;-64
2022/06/06 03:55:08;;;;;;;6.13;3.63;;;21.10;64.20;;;;;;5073746;28;20052;-64
2022/06/06 03:57:34;;;;;;;5.85;3.80;;;21.10;64.20;;;;;;5073646;28;20052;-63
2022/06/06 04:00:03;;;;;;;5.88;3.55;;;21.10;64.20;;;;;;5074275;28;20059;-63
2022/06/06 04:02:33;;;;;;;5.70;3.70;;;21.10;64.20;;;;;;5072208;28;20036;-63
2022/06/06 04:05:13;;;;;;;6.32;4.03;;;21.10;64.20;;;;;;5070256;28;20037;-63
2022/06/06 04:07:39;;;;;;;7.80;3.60;;;21.10;64.10;;;;;;5073486;28;20048;-63
2022/06/06 04:10:05;;;;;;;5.55;3.38;;;21.10;64.10;;;;;;5072794;28;20041;-63
2022/06/06 04:13:01;;;;;;;5.55;3.55;;;21.10;64.10;;;;;;5074278;28;20050;-63
2022/06/06 04:15:42;;;;;;;6.78;3.72;;;21.10;64.00;;;;;;5074274;28;20040;-63
2022/06/06 04:18:26;;;;;;;5.90;3.60;;;21.10;64.10;;;;;;5073309;28;20044;-63
2022/06/06 04:21:10;;;;;;;5.20;3.25;;;21.10;64.10;;;;;;5072568;28;20047;-63
2022/06/06 04:23:59;;;;;;;6.93;3.80;;;21.10;64.10;;;;;;5072067;28;20053;-63
2022/06/06 04:26:40;;;;;;;5.38;3.47;;;21.10;64.00;;;;;;5072791;28;20132;-63
2022/06/06 04:29:29;;;;;;;5.05;3.15;;;21.10;64.00;;;;;;5073598;28;20051;-63
2022/06/06 04:32:34;;;;;;;5.82;3.50;;;21.10;64.00;;;;;;5088246;28;20040;-63
2022/06/06 04:35:08;;;;;;;5.82;3.22;;;21.10;63.90;;;;;;5072785;28;20095;-64
2022/06/06 04:37:39;;;;;;;4.88;2.97;;;21.10;64.00;;;;;;5071542;28;20048;-63
2022/06/06 04:40:23;;;;;;;5.28;3.42;;;21.10;64.00;;;;;;5072147;28;20044;-64
2022/06/06 04:43:05;;;;;;;6.30;3.70;;;21.10;64.00;;;;;;5071864;28;20126;-63
2022/06/06 04:45:36;;;;;;;4.38;3.20;;;21.10;64.00;;;;;;5071763;28;20109;-63
2022/06/06 04:48:02;;;;;;;4.57;3.15;;;21.10;64.00;;;;;;5073228;28;20059;-63
2022/06/06 04:50:28;;;;;;;5.85;3.42;;;21.10;64.00;;;;;;5072176;28;20048;-63
2022/06/06 04:52:55;;;;;;;5.72;3.25;;;21.10;64.00;;;;;;5071033;28;20037;-63
2022/06/06 04:55:22;;;;;;;5.73;3.53;;;21.10;64.00;;;;;;5072204;28;20048;-63
2022/06/06 04:57:51;;;;;;;4.90;3.47;;;21.10;64.10;;;;;;5071616;28;20049;-63
2022/06/06 05:00:17;;;;;;;4.60;3.17;;;21.10;64.10;;;;;;5071576;28;20040;-63
2022/06/06 05:02:42;;;;;;;5.57;3.65;;;21.10;64.00;;;;;;5073068;28;20047;-63
2022/06/06 05:05:09;;;;;;;6.30;4.03;;;21.10;63.90;;;;;;5072144;28;20399;-63
2022/06/06 05:07:50;;;;;;;5.30;3.67;;;21.00;63.90;;;;;;5073062;28;20044;-63
2022/06/06 05:10:25;;;;;;;6.00;3.88;;;21.00;63.90;;;;;;5073138;28;20044;-63
2022/06/06 05:13:12;;;;;;;6.32;3.72;;;21.00;63.90;;;;;;5072074;28;20056;-63
2022/06/06 05:15:47;;;;;;;5.82;3.67;;;21.00;63.80;;;;;;5071867;28;20052;-63
2022/06/06 05:18:45;;;;;;;4.68;3.35;;;21.00;63.70;;;;;;5071223;28;20052;-63
2022/06/06 05:21:31;;;;;;;4.63;3.08;;;21.00;63.80;;;;;;5071084;28;20064;-63
2022/06/06 05:24:15;;;;;;;4.95;3.17;;;21.00;63.80;;;;;;5072487;28;20067;-63
2022/06/06 05:27:08;;;;;;;6.35;3.35;;;21.00;63.80;;;;;;5071508;28;20557;-63
2022/06/06 05:30:04;;;;;;;5.70;3.53;;;21.00;63.70;;;;;;5088598;28;20530;-63
2022/06/06 05:32:54;;;;;;;5.82;3.40;;;21.00;63.80;;;;;;5071885;28;20052;-63
2022/06/06 05:35:33;;;;;;;4.70;3.30;;;21.00;63.70;;;;;;5071219;28;20488;-63
2022/06/06 05:38:13;;;;;;;5.32;3.47;;;21.00;63.70;;;;;;5071029;28;20047;-63
2022/06/06 05:40:44;;;;;;;5.30;3.20;;;21.00;63.70;;;;;;5070970;28;20449;-63
2022/06/06 05:43:47;;;;;;;5.47;3.25;;;21.00;63.60;;;;;;5072164;28;20037;-62
2022/06/06 05:46:19;;;;;;;5.32;3.30;;;21.00;63.60;;;;;;5071515;28;20673;-64
2022/06/06 05:49:03;;;;;;;4.90;2.95;;;21.00;63.60;;;;;;5070197;28;20131;-63
2022/06/06 05:51:45;;;;;;;5.07;3.35;;;21.00;63.60;;;;;;5071549;28;20055;-63
2022/06/06 05:54:57;;;;;;;4.10;2.97;;;21.00;63.60;;;;;;5071147;28;20052;-63
2022/06/06 05:57:36;;;;;;;5.90;3.40;;;21.00;63.50;;;;;;5040193;28;20064;-63
2022/06/06 06:00:16;;;;;;;4.95;3.40;;;21.00;63.60;;;;;;5072147;28;20040;-63
2022/06/06 06:03:06;;;;;;;5.07;2.88;;;21.00;63.50;;;;;;5071605;28;20044;-63
2022/06/06 06:06:09;;;;;;;4.88;2.67;;;21.00;63.50;;;;;;5071015;28;20404;-63
2022/06/06 06:09:01;;;;;;;6.10;3.75;;;21.00;63.50;;;;;;5071879;28;20040;-63
2022/06/06 06:11:48;;;;;;;4.88;2.92;;;21.00;63.50;;;;;;5071577;28;20071;-63
2022/06/06 06:14:16;;;;;;;5.53;3.38;;;21.00;63.60;;;;;;5071214;28;20080;-63
2022/06/06 06:16:47;;;;;;;6.03;3.22;;;20.90;63.50;;;;;;5071390;28;20055;-63
2022/06/06 06:19:17;;;;;;;5.10;3.30;;;21.00;63.50;;;;;;5071660;28;20080;-63
2022/06/06 06:21:56;;;;;;;5.20;3.05;;;21.00;63.60;;;;;;5071710;28;20048;-62
2022/06/06 06:24:30;;;;;;;5.63;3.20;;;20.90;64.10;;;;;;5071688;28;20073;-63
2022/06/06 06:26:56;;;;;;;4.20;3.10;;;20.90;63.40;;;;;;5070481;28;20052;-63
2022/06/06 06:29:22;;;;;;;4.95;3.15;;;21.00;63.50;;;;;;5072251;28;20037;-63
2022/06/06 06:32:08;;;;;;;4.93;3.47;;;21.00;63.50;;;;;;5071079;28;20401;-63
2022/06/06 06:34:58;;;;;;;4.95;3.47;;;21.00;63.80;;;;;;5071846;28;20109;-63
2022/06/06 06:37:46;;;;;;;5.65;3.15;;;21.00;63.80;;;;;;5070576;28;20080;-63
2022/06/06 06:40:34;;;;;;;6.13;3.30;;;21.00;63.90;;;;;;5071074;28;20161;-64
2022/06/06 06:43:06;;;;;;;5.15;3.35;;;21.10;63.90;;;;;;5071890;28;20595;-63
2022/06/06 06:45:38;;;;;;;5.80;3.20;;;21.10;63.90;;;;;;5071244;28;20453;-63
2022/06/06 06:48:12;;;;;;;5.63;3.40;;;21.10;64.00;;;;;;5069752;28;20493;-63
2022/06/06 06:50:47;;;;;;;5.05;3.42;;;21.10;64.00;;;;;;5072362;28;20044;-63
2022/06/06 06:53:35;;;;;;;5.75;3.17;;;21.10;64.00;;;;;;5075567;28;20041;-62
2022/06/06 06:56:30;;;;;;;6.25;3.17;;;21.10;64.10;;;;;;5075741;28;20080;-63
2022/06/06 06:59:08;;;;;;;5.50;3.50;;;21.20;64.20;;;;;;5065260;28;20055;-62
2022/06/06 07:08:34;;;;;;;5.85;3.20;;;21.20;63.90;;;;;;5043944;28;20045;-63
2022/06/06 07:11:09;;;;;;;4.95;3.33;;;21.20;63.90;;;;;;5073433;28;20397;-62
2022/06/06 07:13:46;;;;;;;5.50;3.53;;;21.20;63.80;;;;;;5074646;28;20040;-62
2022/06/06 07:16:24;;;;;;;6.13;3.60;;;21.20;63.80;;;;;;5075348;28;20080;-62
2022/06/06 07:18:58;;;;;;;5.68;3.50;;;21.20;63.60;;;;;;5056396;28;20052;-63
2022/06/06 07:21:24;;;;;;;6.80;3.22;;;21.20;63.60;;;;;;5073317;28;20060;-63
2022/06/06 07:23:50;;;;;;;5.88;3.67;;;21.20;63.60;;;;;;5073569;28;20044;-63
2022/06/06 07:26:17;;;;;;;4.68;3.08;;;21.20;63.70;;;;;;5069392;28;20044;-63
2022/06/06 07:28:42;;;;;;;6.28;4.05;;;21.20;63.80;;;;;;5054163;28;20041;-63
2022/06/06 07:31:20;;;;;;;5.75;3.45;;;21.20;63.80;;;;;;5057339;28;20039;-63
2022/06/06 07:33:51;;;;;;;6.00;3.33;;;21.20;64.30;;;;;;5073818;28;20492;-63
2022/06/06 07:36:36;;;;;;;5.63;3.50;;;21.20;63.60;;;;;;5073050;28;20503;-63
2022/06/06 07:39:07;;;;;;;7.68;3.65;;;21.20;63.60;;;;;;5073849;28;20438;-63
2022/06/06 07:41:41;;;;;;;5.88;3.58;;;21.30;63.60;;;;;;5072663;28;20041;-63
2022/06/06 07:44:19;;;;;;;6.15;3.58;;;21.30;63.60;;;;;;5072973;28;20127;-63
2022/06/06 07:47:05;;;;;;;5.28;3.75;;;21.30;63.60;;;;;;5074575;28;20056;-63
2022/06/06 07:49:42;;;;;;;10.20;3.97;;;21.30;63.60;;;;;;5074656;28;20472;-63
2022/06/06 07:52:27;;;;;;;6.78;4.35;;;21.30;63.60;;;;;;5074783;28;20056;-63
2022/06/06 07:55:03;;;;;;;6.70;3.55;;;21.30;63.60;;;;;;5071665;28;20055;-63
2022/06/06 07:57:32;;;;;;;6.82;3.83;;;21.30;63.50;;;;;;5074587;28;20080;-63
2022/06/06 08:00:07;;;;;;;8.27;4.10;;;21.30;63.30;;;;;;5073632;28;20044;-63
2022/06/06 08:02:56;;;;;;;7.80;4.20;;;21.30;63.40;;;;;;5072494;28;20403;-63
2022/06/06 08:05:59;;;;;;;6.82;4.05;;;21.30;63.30;;;;;;5072938;28;20044;-63
2022/06/06 08:08:55;;;;;;;6.53;3.88;;;21.30;63.50;;;;;;5073198;28;20488;-63
2022/06/06 08:11:46;;;;;;;6.32;4.30;;;21.30;63.60;;;;;;5074118;28;20551;-63
2022/06/06 08:14:40;;;;;;;8.05;4.38;;;21.30;63.60;;;;;;5059209;28;20044;-63
2022/06/06 08:17:19;;;;;;;6.60;4.18;;;21.40;63.60;;;;;;5073163;28;20169;-63
2022/06/06 08:20:03;;;;;;;6.63;4.45;;;21.40;63.50;;;;;;5072907;28;20062;-63
2022/06/06 08:22:29;;;;;;;8.23;4.18;;;21.40;63.40;;;;;;5072925;28;20095;-63
2022/06/06 08:24:57;;;;;;;6.53;4.20;;;21.40;63.40;;;;;;5073175;28;20099;-63
2022/06/06 08:27:24;;;;;;;6.00;3.90;;;21.40;63.30;;;;;;5073985;28;20044;-63
2022/06/06 08:29:49;;;;;;;6.47;4.63;;;21.50;63.30;;;;;;5055244;28;20476;-63
2022/06/06 08:32:15;;;;;;;6.78;4.25;;;21.50;63.30;;;;;;5073600;28;20062;-63
2022/06/06 08:34:41;;;;;;;5.68;3.78;;;21.60;63.10;;;;;;5073548;28;20174;-63
2022/06/06 08:37:13;;;;;;;6.35;3.97;;;21.60;63.10;;;;;;5072784;28;20067;-63
2022/06/06 08:39:53;;;;;;;5.32;3.50;;;21.60;63.10;;;;;;5073413;28;20082;-63
2022/06/06 08:42:31;;;;;;;6.22;3.40;;;21.60;63.00;;;;;;5073891;28;20041;-63
2022/06/06 08:45:31;;;;;;;6.65;3.70;;;21.60;62.90;;;;;;5072184;28;20091;-63
2022/06/06 08:48:02;;;;;;;6.90;3.80;;;21.60;62.90;;;;;;5070943;28;20107;-63
2022/06/06 08:51:22;;;;;;;5.43;3.30;;;21.60;62.80;;;;;;5072597;28;20849;-63
2022/06/06 08:53:59;;;;;;;4.88;2.95;;;21.60;62.70;;;;;;5030761;28;20136;-63
2022/06/06 08:56:46;;;;;;;6.13;3.60;;;21.60;62.60;;;;;;5067618;28;20048;-63
2022/06/06 08:59:24;;;;;;;5.43;3.20;;;21.60;62.50;;;;;;5072854;28;20048;-63
2022/06/06 09:02:24;;;;;;;4.53;3.00;;;21.60;62.50;;;;;;5073088;28;20066;-63
2022/06/06 09:05:13;;;;;;;5.03;3.00;;;21.70;62.50;;;;;;5070832;28;20048;-63
2022/06/06 09:08:10;;;;;;;5.32;3.03;;;21.70;62.40;;;;;;5072130;28;20045;-63
2022/06/06 09:10:54;;;;;;;4.95;3.50;;;21.70;62.30;;;;;;5087482;28;20381;-63
2022/06/06 09:13:57;;;;;;;4.72;2.53;;;21.70;62.20;;;;;;5071977;28;20094;-63
2022/06/06 09:16:51;;;;;;;5.82;3.20;;;21.80;62.20;;;;;;5072615;28;20041;-63
2022/06/06 09:19:53;;;;;;;4.63;2.92;;;21.80;62.10;;;;;;5070758;28;20056;-63
2022/06/06 09:22:31;;;;;;;5.05;2.75;;;21.80;62.00;;;;;;5071681;28;20048;-63
2022/06/06 09:25:32;;;;;;;6.40;3.03;;;21.80;61.90;;;;;;5071697;28;20098;-63
2022/06/06 09:28:04;;;;;;;4.55;2.30;;;21.80;61.90;;;;;;5048435;28;20051;-63
2022/06/06 09:30:58;;;;;;;4.45;2.35;;;21.80;61.80;;;;;;5073015;28;20048;-63
2022/06/06 09:33:51;;;;;;;4.40;2.60;;;21.90;61.70;;;;;;5072072;28;20052;-63
2022/06/06 09:36:23;;;;;;;4.32;2.22;;;21.80;61.60;;;;;;5072862;28;20052;-63
2022/06/06 09:38:55;;;;;;;5.60;2.60;;;21.90;61.60;;;;;;5071282;28;20080;-63
2022/06/06 09:41:40;;;;;;;4.10;2.15;;;21.90;61.50;;;;;;5071984;28;20553;-63
2022/06/06 09:44:50;;;;;;;3.33;2.28;;;21.90;61.40;;;;;;5072480;28;20045;-63
2022/06/06 09:47:46;;;;;;;3.22;1.90;;;21.90;61.40;;;;;;5030012;28;20057;-63
2022/06/06 09:50:29;;;;;;;5.32;2.47;;;21.90;61.30;;;;;;5085677;28;20040;-63
2022/06/06 09:53:04;;;;;;;3.92;2.08;;;22.00;61.30;;;;;;5071923;28;20102;-63
2022/06/06 10:01:31;;;;;;;4.68;2.88;;;22.00;61.10;;;;;;5071509;28;20472;-63
2022/06/06 10:04:33;;;;;;;4.38;2.25;;;22.00;61.10;;;;;;5070990;28;20044;-63
2022/06/06 10:07:27;;;;;;;3.22;1.95;;;21.90;61.10;;;;;;5072288;28;20044;-62
2022/06/06 10:10:13;;;;;;;3.47;1.80;;;21.90;61.10;;;;;;5071466;28;20040;-63
2022/06/06 10:12:59;;;;;;;3.33;2.00;;;22.00;61.00;;;;;;5071750;28;20049;-63
2022/06/06 10:15:56;;;;;;;3.20;2.10;;;21.90;61.00;;;;;;5070272;28;20064;-63
2022/06/06 10:18:26;;;;;;;3.08;1.98;;;22.00;61.10;;;;;;5071936;28;20055;-63
2022/06/06 10:21:27;;;;;;;4.82;2.10;;;21.90;61.10;;;;;;5070342;28;20045;-63
2022/06/06 10:23:56;;;;;;;3.85;1.95;;;21.90;61.00;;;;;;5070206;28;20131;-63
2022/06/06 10:26:34;;;;;;;5.70;2.08;;;21.90;61.00;;;;;;5056750;28;20045;-63
2022/06/06 10:30:10;;;;;;;3.45;1.88;;;22.00;61.00;;;;;;5075234;28;20134;-63
2022/06/06 10:32:49;;;;;;;3.72;1.92;;;22.00;60.90;;;;;;5076066;28;20510;-63
2022/06/06 10:35:21;;;;;;;3.65;1.70;;;22.00;60.80;;;;;;5052026;28;20049;-63
2022/06/06 10:38:01;;;;;;;2.50;1.42;;;21.90;60.70;;;;;;5073855;28;20056;-63
2022/06/06 10:40:32;;;;;;;2.92;1.55;;;21.90;60.60;;;;;;5075715;28;20484;-62
2022/06/06 10:43:32;;;;;;;3.20;1.50;;;22.00;60.70;;;;;;5074970;28;20040;-63
2022/06/06 10:46:03;;;;;;;4.18;2.10;;;22.00;60.60;;;;;;5074472;28;20053;-62
2022/06/06 10:48:52;;;;;;;3.65;1.58;;;22.00;60.60;;;;;;5074384;28;20395;-62
2022/06/06 10:54:11;;;;;;;2.40;1.67;;;22.00;60.40;;;;;;5055482;28;20045;-62
2022/06/06 10:56:42;;;;;;;3.80;1.88;;;22.10;60.50;;;;;;5055877;28;20056;-62
2022/06/06 10:59:09;;;;;;;1.77;1.27;;;22.10;60.40;;;;;;5054741;28;20076;-62
2022/06/06 11:01:59;;;;;;;3.70;1.58;;;22.10;60.40;;;;;;5058098;28;20095;-62
2022/06/06 11:04:45;;;;;;;2.55;1.40;;;22.10;60.40;;;;;;5073575;28;20044;-62
2022/06/06 11:07:32;;;;;;;2.70;1.40;;;22.10;60.30;;;;;;5074800;28;20040;-62
2022/06/06 11:10:36;;;;;;;2.28;1.20;;;22.10;60.30;;;;;;5074981;28;20075;-63
2022/06/06 11:13:13;;;;;;;2.60;1.33;;;22.10;60.20;;;;;;5073231;28;20040;-62
2022/06/06 11:16:01;;;;;;;2.90;1.30;;;22.10;60.20;;;;;;5075197;28;20040;-62
2022/06/06 11:18:56;;;;;;;3.33;1.38;;;22.10;60.10;;;;;;5066606;28;20059;-62
2022/06/06 11:21:45;;;;;;;2.47;1.50;;;22.10;60.00;;;;;;5074083;28;20044;-63
2022/06/06 11:24:14;;;;;;;2.90;1.25;;;22.20;60.00;;;;;;5073329;28;20114;-62
2022/06/06 11:26:46;;;;;;;2.03;1.27;;;22.10;59.90;;;;;;5074191;28;20074;-62
2022/06/06 11:29:27;;;;;;;3.08;1.17;;;22.10;59.90;;;;;;5074879;28;20040;-62
2022/06/06 11:32:21;;;;;;;3.35;1.50;;;22.10;59.80;;;;;;5073414;28;20425;-62
2022/06/06 11:35:21;;;;;;;3.28;1.20;;;22.10;59.70;;;;;;5074813;28;20132;-62
2022/06/06 11:38:06;;;;;;;4.53;1.33;;;22.10;59.60;;;;;;5058812;28;20058;-62
2022/06/06 11:40:47;;;;;;;1.98;1.13;;;22.10;59.60;;;;;;5074042;28;20439;-62
2022/06/06 11:43:43;;;;;;;2.75;1.30;;;22.10;59.70;;;;;;5075052;28;20036;-62
2022/06/06 11:46:14;;;;;;;2.70;1.23;;;22.10;59.60;;;;;;5073191;28;20051;-62
2022/06/06 11:48:53;;;;;;;3.53;1.25;;;22.10;59.70;;;;;;5073086;28;20102;-62
2022/06/06 11:51:49;;;;;;;3.05;1.20;;;22.10;59.60;;;;;;5072959;28;20075;-63
2022/06/06 11:54:31;;;;;;;1.85;1.23;;;22.10;59.70;;;;;;5073409;28;20125;-63
2022/06/06 11:57:03;;;;;;;1.60;0.90;;;22.10;59.70;;;;;;5073162;28;20037;-63
2022/06/06 12:00:06;;;;;;;3.33;1.38;;;22.10;59.80;;;;;;5056836;28;20045;-62
2022/06/06 12:02:47;;;;;;;3.17;1.20;;;22.10;59.80;;;;;;5073594;28;20044;-63
2022/06/06 12:05:40;;;;;;;1.40;1.00;;;22.00;59.70;;;;;;5073992;28;20165;-64
2022/06/06 12:08:15;;;;;;;2.65;1.10;;;22.00;59.70;;;;;;5072409;28;20075;-63
2022/06/06 12:10:49;;;;;;;2.40;1.10;;;22.00;59.70;;;;;;5074076;28;20432;-63
2022/06/06 12:13:25;;;;;;;2.67;1.08;;;22.00;59.80;;;;;;5074337;28;20041;-63
2022/06/06 12:16:15;;;;;;;2.25;1.65;;;22.00;59.90;;;;;;5072195;28;20048;-62
2022/06/06 12:19:02;;;;;;;1.73;1.10;;;22.00;59.90;;;;;;5072886;28;20459;-62
2022/06/06 12:22:01;;;;;;;2.47;1.10;;;22.00;60.50;;;;;;5073155;28;20113;-63
2022/06/06 12:25:05;;;;;;;1.23;1.00;;;22.00;59.90;;;;;;5072198;28;20048;-62
2022/06/06 12:28:03;;;;;;;2.20;1.10;;;22.00;59.90;;;;;;5071619;28;20112;-62
2022/06/06 12:30:46;;;;;;;1.80;1.10;;;21.90;59.70;;;;;;5055454;28;20150;-63
2022/06/06 12:33:43;;;;;;;2.17;1.23;;;22.00;59.80;;;;;;5072694;28;20044;-62
2022/06/06 12:36:19;;;;;;;2.00;1.33;;;22.00;59.80;;;;;;5068523;28;20048;-63
2022/06/06 12:39:15;;;;;;;1.65;1.00;;;21.90;59.80;;;;;;5053287;28;20067;-63
2022/06/06 12:41:41;;;;;;;4.32;1.20;;;22.00;59.90;;;;;;5053487;28;20048;-63
2022/06/06 12:44:14;;;;;;;1.80;1.15;;;22.00;59.90;;;;;;5052916;28;20045;-63
2022/06/06 12:46:54;;;;;;;1.63;1.05;;;21.90;59.80;;;;;;5052289;28;20048;-63
2022/06/06 12:49:48;;;;;;;2.67;1.30;;;21.90;59.90;;;;;;5052413;28;20556;-63
2022/06/06 12:52:36;;;;;;;2.25;1.30;;;22.00;60.00;;;;;;5053641;28;20044;-63
2022/06/06 12:57:55;;;;;;;2.05;1.33;;;22.00;60.10;;;;;;5052543;28;20111;-63
2022/06/06 13:03:22;;;;;;;2.65;1.20;;;21.90;60.10;;;;;;5053202;28;20045;-63
2022/06/06 13:06:00;;;;;;;2.40;1.25;;;22.00;60.20;;;;;;5062594;28;20041;-63
2022/06/06 13:08:50;;;;;;;2.47;1.38;;;22.00;60.20;;;;;;5071827;28;20128;-63
2022/06/06 13:11:26;;;;;;;3.40;1.23;;;21.90;60.20;;;;;;5072251;28;20102;-63
2022/06/06 13:13:59;;;;;;;1.67;1.10;;;21.90;60.20;;;;;;5070972;28;20487;-63
2022/06/06 13:16:42;;;;;;;2.08;1.20;;;22.00;60.30;;;;;;5072591;28;20036;-62
2022/06/06 13:19:20;;;;;;;1.70;1.10;;;22.00;60.40;;;;;;5071265;28;20048;-62
2022/06/06 13:22:05;;;;;;;1.75;1.10;;;21.90;60.40;;;;;;5071387;28;20075;-62
2022/06/06 13:24:56;;;;;;;1.75;1.10;;;21.90;60.50;;;;;;5071106;28;20049;-63
2022/06/06 13:27:26;;;;;;;2.20;1.15;;;21.90;60.50;;;;;;5072951;28;20040;-62
2022/06/06 13:29:52;;;;;;;2.60;1.02;;;21.90;60.60;;;;;;5072369;28;20044;-63
2022/06/06 13:32:38;;;;;;;1.80;1.00;;;21.90;60.70;;;;;;5072140;28;20039;-63
2022/06/06 13:35:23;;;;;;;1.48;0.98;;;21.90;60.70;;;;;;5071892;28;20041;-63
2022/06/06 13:38:03;;;;;;;2.20;1.00;;;21.90;60.70;;;;;;5071329;28;20045;-63
2022/06/06 13:40:41;;;;;;;1.95;1.10;;;22.00;61.40;;;;;;5071668;28;20063;-63
2022/06/06 13:43:28;;;;;;;1.93;1.10;;;21.90;60.70;;;;;;5072869;28;20087;-62
2022/06/06 13:46:02;;;;;;;2.37;1.10;;;22.00;60.80;;;;;;5071728;28;20048;-62
2022/06/06 13:48:55;;;;;;;2.17;1.42;;;22.00;60.80;;;;;;5072821;28;20338;-63
2022/06/06 13:51:29;;;;;;;2.30;0.95;;;22.00;60.80;;;;;;5071047;28;20044;-63
2022/06/06 13:54:10;;;;;;;2.20;1.08;;;22.00;60.90;;;;;;5071226;28;20113;-62
2022/06/06 13:56:41;;;;;;;2.55;1.05;;;21.90;60.80;;;;;;5072227;28;20037;-62
2022/06/06 13:59:33;;;;;;;3.17;1.13;;;21.90;60.90;;;;;;5072718;28;20041;-62
2022/06/06 14:02:32;;;;;;;2.35;1.33;;;21.90;60.90;;;;;;5069843;28;20396;-63
2022/06/06 14:05:29;;;;;;;1.67;1.10;;;21.90;61.00;;;;;;5072236;28;20041;-63
2022/06/06 14:08:13;;;;;;;1.77;0.95;;;21.90;61.00;;;;;;5064062;28;20045;-62
2022/06/06 14:10:51;;;;;;;2.35;1.00;;;21.90;61.00;;;;;;5051014;28;20048;-62
2022/06/06 14:13:34;;;;;;;2.10;1.00;;;21.90;61.10;;;;;;5051208;28;20033;-62
2022/06/06 14:15:59;;;;;;;1.85;1.10;;;21.90;61.10;;;;;;5050174;28;20098;-62
2022/06/06 14:18:28;;;;;;;1.60;0.90;;;21.80;61.10;;;;;;5051243;28;20049;-62